Flight Briefing for CPX224

Departure Arrival
Los Angeles International Airport (KLAX)
Click to view FAA NOTAMS
Ted Stevens Anchorage International Airport (PANC)
Click to view FAA NOTAMS
Departure Time Arrival Time
1730 UTC 2210 UTC
Aircraft Distance
B767-300BDSF 2089nm
Departure METAR Arrival METAR
KLAX 250253Z 24010KT 10SM FEW042 SCT120 16/11 A2990 RMK AO2 SLP123 T01560106 55005 PANC 250253Z 33005KT 10SM FEW050 SCT060 SCT120 16/05 A3018 RMK AO2 SLP222 T01610050 58013
Suggested Route
SUMMR1 SCTRR PYE J143 ENI FOT BOXER B453 MDO WITTI4


View recent IFR Routes data
Notes



Charts and Procedures

Charts for KLAX
No chart available
Charts for PANC
No chart available

Windy.com Weather Map